メインページ
METAR-TAF:

METAR-TAF

空港 :

調布飛行場

調布, 日本

緯度: 35-40N, 経度: 139-32E, 海抜: 41m

現時点の気象観測

当レポートは2時間18分前の07:00(UTC)に作成
南西の風 3kt、から西の間で変化する
気温 8°C
湿度 61%
気圧 1020 hPa
視程10km以上
高度2000ftの雲はほとんどない
高度4000ftの千切れ雲あり

METAR: RJTF 130700Z 23003KT 180V260 9999 FEW020 BKN040 08/01 Q1020

時間: 18:18 (09:18 UTC)


TAF: 見つかりません

4,000以上の空港の気象観測と天気予報(METAR報とTAF報)

利用可能な観測所は地図上に黄色い丸と赤い丸で示す。

丸の上にカーソルを重ねると観測所名を参照できる。

次にクリックすると気象観測と天気予報を参照できる。

マップの切り替え:黒色「×」印の緑ボタンをクリックして拡大、「-」印の緑ボタンをクリックして縮小、緑色の三角印をクリックして隣りの地図に切り替え


METAR-TAF: